Time;durP1;ratioP1;P1;durP2;ratioP2;P2;SDS_P1;SDS_P2;PMS_P1;PMS_P2;Temp;Humidity;BMP_temperature;BMP_pressure;BME280_temperature;BME280_humidity;BME280_pressure;Samples;Min_cycle;Max_cycle;Signal;HPM_P1;HPM_P2
2023/12/09 00:00:35;;;;;;;;;7.25;7.25;;;;;18.32;48.36;100901.50;5102118;27;56418;-67
2023/12/09 00:03:00;;;;;;;;;6.00;6.00;;;;;18.26;48.55;100891.13;5102078;27;58607;-67
2023/12/09 00:05:25;;;;;;;;;8.75;8.00;;;;;18.04;48.67;100877.41;5102073;27;58988;-67
2023/12/09 00:07:51;;;;;;;;;5.25;4.00;;;;;18.25;48.49;100874.94;5102189;27;45830;-68
2023/12/09 00:10:16;;;;;;;;;8.50;8.50;;;;;18.09;48.80;100867.09;5101803;27;62709;-67
2023/12/09 00:12:41;;;;;;;;;8.50;6.25;;;;;18.08;48.96;100868.06;5102518;27;45505;-67
2023/12/09 00:15:07;;;;;;;;;9.00;6.00;;;;;17.94;48.89;100865.53;5101312;27;72452;-66
2023/12/09 00:17:32;;;;;;;;;6.25;6.25;;;;;18.13;48.38;100865.88;5102110;27;45754;-67
2023/12/09 00:19:59;;;;;;;;;11.50;9.00;;;;;18.03;48.74;100856.72;5102141;27;45310;-65
2023/12/09 00:22:24;;;;;;;;;5.25;5.25;;;;;18.17;48.50;100861.09;5102155;27;45611;-66
2023/12/09 00:24:49;;;;;;;;;6.50;4.75;;;;;18.11;48.62;100868.72;5101675;27;58816;-66
2023/12/09 00:27:14;;;;;;;;;6.25;4.25;;;;;18.12;48.17;100869.56;5101901;27;46068;-67
2023/12/09 00:29:40;;;;;;;;;8.00;4.75;;;;;18.03;48.39;100864.84;5101195;27;65801;-67
2023/12/09 05:31:27;;;;;;;;;8.25;4.25;;;;;18.50;48.68;100489.28;1422726;26;46058;-73
2023/12/09 05:33:52;;;;;;;;;8.50;5.25;;;;;18.62;48.89;100472.03;5034859;28;45324;-74
2023/12/09 05:36:17;;;;;;;;;3.00;3.00;;;;;18.69;48.12;100464.22;5034963;28;55871;-74
2023/12/09 05:38:43;;;;;;;;;3.25;3.25;;;;;18.65;48.63;100449.16;5034995;28;61373;-74
2023/12/09 05:41:09;;;;;;;;;5.75;5.75;;;;;18.63;48.58;100451.16;5016369;28;45346;-73
2023/12/09 05:43:36;;;;;;;;;3.50;3.50;;;;;18.69;48.45;100442.50;5036433;28;45448;-74
2023/12/09 05:46:01;;;;;;;;;10.00;5.25;;;;;18.72;48.61;100445.81;5037453;28;45296;-74
2023/12/09 05:48:27;;;;;;;;;6.75;5.00;;;;;18.76;48.46;100435.56;5019652;28;45356;-74
2023/12/09 05:50:52;;;;;;;;;4.00;4.00;;;;;18.62;48.58;100425.88;5037601;28;45170;-74
2023/12/09 05:53:17;;;;;;;;;4.00;3.00;;;;;18.69;48.63;100412.63;5013962;28;57997;-74
2023/12/09 05:55:42;;;;;;;;;9.50;4.50;;;;;18.66;48.68;100426.47;5026901;28;45528;-75
2023/12/09 05:58:08;;;;;;;;;3.00;3.00;;;;;18.67;48.65;100403.75;5017545;28;45378;-73
2023/12/09 06:00:33;;;;;;;;;5.75;4.75;;;;;18.65;48.81;100386.72;5035488;28;45413;-74
2023/12/09 06:02:59;;;;;;;;;6.75;4.00;;;;;18.74;48.95;100402.22;5034696;28;54354;-74
2023/12/09 06:05:24;;;;;;;;;11.50;3.25;;;;;18.60;49.11;100392.56;5035229;28;45340;-73
2023/12/09 06:07:49;;;;;;;;;4.00;3.00;;;;;18.62;48.92;100390.56;5034474;28;45979;-74
2023/12/09 06:10:15;;;;;;;;;8.00;3.00;;;;;18.54;49.39;100384.91;5035398;28;45484;-75
2023/12/09 06:12:40;;;;;;;;;3.00;3.00;;;;;18.41;49.87;100381.47;5035190;28;45382;-74
2023/12/09 06:15:06;;;;;;;;;7.00;4.00;;;;;18.43;49.56;100363.22;5035011;28;45345;-73
2023/12/09 06:17:32;;;;;;;;;3.00;3.00;;;;;18.51;49.67;100369.72;5034806;28;46122;-73
2023/12/09 06:19:58;;;;;;;;;5.75;4.25;;;;;18.41;49.83;100371.50;5034952;28;45324;-73
2023/12/09 06:22:23;;;;;;;;;4.50;2.00;;;;;18.38;49.96;100369.03;5034816;28;45573;-74
2023/12/09 06:24:48;;;;;;;;;2.00;2.00;;;;;18.22;50.41;100349.59;5034391;28;60305;-74
2023/12/09 06:27:13;;;;;;;;;3.00;2.00;;;;;18.29;50.33;100342.66;5034609;28;54881;-76
2023/12/09 06:29:39;;;;;;;;;5.25;2.75;;;;;18.33;50.26;100336.00;5029555;28;45572;-75
2023/12/09 06:32:04;;;;;;;;;3.75;3.75;;;;;18.34;50.37;100321.44;5029252;28;51257;-73
2023/12/09 06:34:30;;;;;;;;;2.50;2.50;;;;;18.37;50.49;100325.75;5034766;28;45515;-72
2023/12/09 06:36:55;;;;;;;;;3.75;3.00;;;;;18.44;50.09;100316.94;5034427;28;46229;-74
2023/12/09 06:39:21;;;;;;;;;2.00;2.00;;;;;18.37;50.44;100309.47;5034745;28;45220;-75
2023/12/09 06:41:47;;;;;;;;;3.00;3.00;;;;;18.43;50.12;100306.22;5034614;28;45190;-74
2023/12/09 06:44:12;;;;;;;;;4.00;3.00;;;;;18.42;50.18;100286.34;5034821;28;45324;-75
2023/12/09 06:46:38;;;;;;;;;3.00;3.00;;;;;18.48;50.19;100288.53;5034335;28;46706;-75
2023/12/09 06:49:03;;;;;;;;;2.00;2.00;;;;;18.35;50.15;100268.88;5034799;28;45360;-78
2023/12/09 06:51:29;;;;;;;;;3.75;2.00;;;;;18.41;50.23;100279.19;5014932;28;45400;-77
2023/12/09 06:53:55;;;;;;;;;2.50;1.25;;;;;18.29;50.32;100252.28;5025285;28;64021;-79
2023/12/09 06:56:21;;;;;;;;;7.00;1.00;;;;;18.36;50.43;100265.19;4996798;28;48391;-73
2023/12/09 06:58:47;;;;;;;;;3.75;2.75;;;;;18.41;50.33;100284.63;5014976;28;45410;-75
2023/12/09 07:01:22;;;;;;;;;1.75;1.75;;;;;18.38;50.65;100279.44;5030458;28;45495;-74
2023/12/09 07:03:48;;;;;;;;;4.00;2.75;;;;;18.29;50.98;100288.38;5033988;28;45382;-79
2023/12/09 07:06:16;;;;;;;;;2.00;2.00;;;;;18.14;50.92;100232.72;5034554;28;45399;-81
2023/12/09 07:08:42;;;;;;;;;2.50;2.00;;;;;18.43;50.41;100260.94;5034532;28;45157;-75
2023/12/09 07:11:09;;;;;;;;;4.00;4.00;;;;;18.48;50.70;100257.81;5033989;28;45339;-80
2023/12/09 07:13:34;;;;;;;;;3.00;1.50;;;;;18.40;50.76;100239.47;5016337;28;46169;-76
2023/12/09 07:16:00;;;;;;;;;2.00;2.00;;;;;18.53;50.77;100229.28;5033883;28;46680;-77
2023/12/09 07:18:25;;;;;;;;;2.00;2.00;;;;;18.63;50.41;100233.97;5015936;28;45380;-76
2023/12/09 07:20:51;;;;;;;;;2.50;1.50;;;;;18.59;50.21;100221.63;5034188;28;50989;-77
2023/12/09 07:23:17;;;;;;;;;2.75;2.00;;;;;18.64;50.60;100235.66;5016234;28;45481;-75
2023/12/09 07:25:43;;;;;;;;;3.00;1.00;;;;;18.67;50.43;100221.81;5033897;28;46304;-75
2023/12/09 07:28:08;;;;;;;;;3.75;1.75;;;;;18.58;50.64;100219.91;5034327;28;45391;-75
2023/12/09 07:30:33;;;;;;;;;1.00;1.00;;;;;18.58;50.77;100207.19;5034107;28;45350;-75
2023/12/09 07:32:59;;;;;;;;;2.50;2.00;;;;;18.63;50.67;100223.94;5033660;28;45648;-75
2023/12/09 07:35:25;;;;;;;;;2.00;2.00;;;;;18.63;50.71;100223.09;5033960;28;45336;-73
2023/12/09 07:37:50;;;;;;;;;2.25;2.25;;;;;18.48;51.09;100217.97;5033591;28;57139;-76
2023/12/09 07:40:15;;;;;;;;;2.75;1.50;;;;;18.58;50.94;100223.47;5033053;28;59726;-75
2023/12/09 07:42:41;;;;;;;;;2.75;2.50;;;;;18.58;50.88;100209.91;5033498;28;45498;-74
2023/12/09 07:45:07;;;;;;;;;1.00;1.00;;;;;18.56;51.19;100208.28;5033479;28;52287;-75
2023/12/09 07:47:32;;;;;;;;;2.00;2.00;;;;;18.51;51.09;100178.84;5034162;28;45294;-76
2023/12/09 07:49:57;;;;;;;;;0.00;0.00;;;;;18.68;50.81;100180.09;5033777;28;45283;-74
2023/12/09 07:52:23;;;;;;;;;1.00;1.00;;;;;18.61;50.96;100171.63;5033343;28;49560;-75
2023/12/09 07:54:48;;;;;;;;;1.00;1.00;;;;;18.57;50.62;100153.03;5017802;28;46587;-75
2023/12/09 07:57:14;;;;;;;;;1.50;1.50;;;;;18.64;51.19;100165.06;5013341;28;65025;-75
2023/12/09 07:59:39;;;;;;;;;3.25;2.00;;;;;18.59;51.36;100154.63;5013766;28;45573;-74
2023/12/09 08:02:05;;;;;;;;;3.75;1.00;;;;;18.73;51.30;100146.09;5013725;28;45438;-75
2023/12/09 08:04:30;;;;;;;;;1.50;1.50;;;;;18.71;51.44;100123.66;5013590;28;46395;-75
2023/12/09 08:06:55;;;;;;;;;0.25;0.25;;;;;18.63;51.35;100103.63;5013171;28;58604;-75
2023/12/09 08:09:21;;;;;;;;;1.00;1.00;;;;;18.61;51.44;100098.34;5013743;28;45438;-75
2023/12/09 08:11:46;;;;;;;;;2.50;1.00;;;;;18.71;51.20;100082.94;5013827;28;45991;-75
2023/12/09 08:14:12;;;;;;;;;1.00;1.00;;;;;18.53;51.25;100049.25;5013399;28;46377;-76
2023/12/09 08:16:37;;;;;;;;;2.00;1.00;;;;;18.68;51.39;100037.03;5017283;28;45363;-75
2023/12/09 08:19:02;;;;;;;;;2.00;2.00;;;;;18.65;51.63;100029.16;5020253;28;47513;-73
2023/12/09 08:21:28;;;;;;;;;3.25;2.00;;;;;18.65;51.31;100007.44;5032739;28;45539;-75
2023/12/09 08:23:54;;;;;;;;;1.75;1.00;;;;;18.59;51.62;100021.59;5019025;28;46010;-75
2023/12/09 08:26:20;;;;;;;;;4.00;1.00;;;;;18.43;51.46;99994.09;5037007;28;45377;-76
2023/12/09 08:28:45;;;;;;;;;0.75;0.75;;;;;18.49;51.83;100004.38;5018966;28;45368;-75
2023/12/09 08:31:11;;;;;;;;;3.00;2.25;;;;;18.61;51.76;99994.31;5037009;28;45585;-74
2023/12/09 08:33:36;;;;;;;;;0.75;0.75;;;;;18.38;51.97;99959.19;5018439;28;45439;-75
2023/12/09 08:36:02;;;;;;;;;2.00;0.75;;;;;18.50;51.86;99976.25;5036548;28;46870;-75
2023/12/09 08:38:27;;;;;;;;;1.50;1.50;;;;;18.54;51.86;99961.41;5036555;28;45395;-75
2023/12/09 08:40:53;;;;;;;;;1.00;1.00;;;;;18.61;51.92;99959.00;5030983;28;60879;-76
2023/12/09 08:43:18;;;;;;;;;1.00;1.00;;;;;18.40;52.06;99953.63;5032837;28;45560;-76
2023/12/09 08:45:44;;;;;;;;;1.25;1.25;;;;;18.23;52.29;99910.91;5036289;28;45425;-76
2023/12/09 08:48:09;;;;;;;;;0.00;0.00;;;;;18.26;52.77;99946.75;5034414;28;45610;-75
2023/12/09 08:50:34;;;;;;;;;4.75;1.00;;;;;18.36;52.21;99906.94;5035727;28;45486;-75
2023/12/09 08:53:02;;;;;;;;;1.00;1.00;;;;;18.48;52.13;99897.66;5034606;28;46217;-76
2023/12/09 08:55:27;;;;;;;;;1.50;0.50;;;;;18.51;52.25;99891.97;5034117;28;45630;-75
2023/12/09 08:57:52;;;;;;;;;2.25;1.00;;;;;18.66;51.92;99889.69;5034945;28;45362;-75
2023/12/09 09:00:20;;;;;;;;;0.50;0.50;;;;;18.71;51.82;99870.28;5015909;28;66721;-76
2023/12/09 09:02:46;;;;;;;;;2.00;1.00;;;;;18.48;52.36;99847.94;5016071;28;45487;-75
2023/12/09 09:05:11;;;;;;;;;1.00;1.00;;;;;18.51;52.09;99824.09;5016080;28;45352;-76
2023/12/09 09:07:40;;;;;;;;;2.00;0.00;;;;;18.54;51.87;99815.66;5015985;28;45734;-75
2023/12/09 09:10:06;;;;;;;;;0.75;0.75;;;;;18.45;52.31;99861.81;5024046;28;45578;-75
2023/12/09 09:12:32;;;;;;;;;0.00;0.00;;;;;18.49;52.03;99836.09;5036011;28;46093;-75
2023/12/09 09:14:57;;;;;;;;;3.00;1.00;;;;;18.34;52.62;99835.66;5035824;28;46972;-76
2023/12/09 09:17:23;;;;;;;;;3.00;2.00;;;;;18.29;52.85;99797.22;5036164;28;45314;-77
2023/12/09 09:19:48;;;;;;;;;1.00;0.00;;;;;18.42;52.83;99816.81;5036156;28;45649;-75
2023/12/09 09:22:13;;;;;;;;;0.00;0.00;;;;;18.36;52.46;99830.97;5035913;28;45426;-76
2023/12/09 09:24:39;;;;;;;;;1.75;0.75;;;;;17.81;54.02;99829.72;5018164;28;45272;-75
2023/12/09 09:27:04;;;;;;;;;0.25;0.25;;;;;18.23;53.09;99848.50;5035892;28;45372;-75
2023/12/09 09:29:29;;;;;;;;;0.00;0.00;;;;;18.23;53.60;99854.78;5036070;28;45539;-76
2023/12/09 09:31:55;;;;;;;;;0.00;0.00;;;;;18.41;52.94;99844.09;5035542;28;46015;-75
2023/12/09 09:34:21;;;;;;;;;0.00;0.00;;;;;18.46;52.99;99815.50;5035126;28;64469;-75
2023/12/09 09:36:46;;;;;;;;;2.00;0.00;;;;;18.49;52.72;99822.53;5035720;28;45387;-77
2023/12/09 09:39:12;;;;;;;;;0.00;0.00;;;;;18.39;52.95;99811.66;5035747;28;45625;-77
2023/12/09 09:42:03;;;;;;;;;0.75;0.75;;;;;18.32;53.18;99818.66;5035516;28;46635;-74
2023/12/09 09:44:29;;;;;;;;;0.25;0.25;;;;;18.21;53.74;99809.78;5035675;28;45422;-74
2023/12/09 09:46:57;;;;;;;;;0.50;0.00;;;;;18.27;53.48;99796.53;5035800;28;45411;-74
2023/12/09 09:49:25;;;;;;;;;1.50;0.75;;;;;18.15;53.95;99792.22;5036016;28;45178;-74
2023/12/09 09:51:53;;;;;;;;;0.00;0.00;;;;;18.38;53.27;99788.22;5031099;28;45437;-76
2023/12/09 09:54:23;;;;;;;;;1.00;1.00;;;;;17.92;54.21;99775.38;5034050;28;45390;-76
2023/12/09 09:56:52;;;;;;;;;0.50;0.00;;;;;18.25;53.99;99782.25;5017519;28;45383;-76
2023/12/09 09:59:18;;;;;;;;;0.00;0.00;;;;;18.20;54.03;99770.97;5020550;28;45428;-77
2023/12/09 10:01:44;;;;;;;;;0.75;0.00;;;;;18.43;53.64;99761.53;5014456;28;57713;-76
2023/12/09 10:04:10;;;;;;;;;2.00;0.00;;;;;18.35;53.61;99760.53;5014949;28;45523;-77
2023/12/09 10:06:36;;;;;;;;;0.50;0.00;;;;;18.47;53.55;99718.66;5022156;28;45526;-77
2023/12/09 10:09:04;;;;;;;;;0.50;0.50;;;;;18.46;53.53;99720.50;5016044;28;45396;-75
2023/12/09 10:11:29;;;;;;;;;0.00;0.00;;;;;18.40;53.77;99714.81;5027645;28;45530;-76
2023/12/09 10:13:55;;;;;;;;;0.50;0.50;;;;;18.34;54.07;99704.56;5015273;28;45377;-77
2023/12/09 10:16:21;;;;;;;;;2.00;0.00;;;;;18.15;54.19;99692.72;5015580;28;45340;-77
2023/12/09 10:18:47;;;;;;;;;0.00;0.00;;;;;18.18;54.40;99678.03;5015276;28;45579;-78
2023/12/09 10:21:13;;;;;;;;;2.00;1.00;;;;;18.30;54.38;99700.41;5010546;28;46219;-78
2023/12/09 10:23:40;;;;;;;;;0.00;0.00;;;;;18.45;54.06;99691.69;4995248;28;46394;-78
2023/12/09 10:26:05;;;;;;;;;1.00;0.00;;;;;18.22;54.80;99695.69;4995671;28;45327;-78
2023/12/09 10:28:36;;;;;;;;;0.00;0.00;;;;;18.54;53.76;99688.06;4995679;28;45287;-86
2023/12/09 10:31:02;;;;;;;;;1.00;0.00;;;;;18.47;54.22;99681.53;4984444;28;47307;-78
2023/12/09 10:33:32;;;;;;;;;0.00;0.00;;;;;18.31;54.67;99664.13;5014748;28;45408;-76
2023/12/09 10:36:00;;;;;;;;;0.00;0.00;;;;;18.08;55.32;99694.28;4997392;28;45417;-76
2023/12/09 10:38:25;;;;;;;;;0.00;0.00;;;;;18.33;54.98;99654.84;5014356;28;45491;-78
2023/12/09 10:40:51;;;;;;;;;0.00;0.00;;;;;17.90;56.37;99655.34;5014077;28;46276;-76
2023/12/09 10:43:17;;;;;;;;;0.00;0.00;;;;;18.29;54.74;99655.31;5014829;28;45415;-78
2023/12/09 10:45:43;;;;;;;;;0.00;0.00;;;;;18.36;54.82;99645.56;5015278;28;45265;-79
2023/12/09 10:48:08;;;;;;;;;0.25;0.00;;;;;18.54;54.18;99612.06;5015004;28;45313;-79
2023/12/09 10:50:37;;;;;;;;;0.00;0.00;;;;;18.45;54.38;99653.69;5015176;28;47482;-76
2023/12/09 10:53:04;;;;;;;;;0.00;0.00;;;;;18.57;54.27;99618.25;5014267;28;45440;-78
2023/12/09 10:55:29;;;;;;;;;0.00;0.00;;;;;18.60;54.96;99643.25;5017583;28;45269;-78
2023/12/09 10:57:55;;;;;;;;;0.00;0.00;;;;;18.73;54.59;99643.75;5023156;28;45403;-78
2023/12/09 11:00:21;;;;;;;;;0.00;0.00;;;;;18.53;55.23;99615.81;5020336;28;45405;-77
2023/12/09 11:02:48;;;;;;;;;0.00;0.00;;;;;18.66;55.14;99612.78;5014316;28;45379;-77
2023/12/09 11:05:14;;;;;;;;;1.00;0.00;;;;;18.80;54.77;99603.28;5014650;28;45593;-77
2023/12/09 11:07:41;;;;;;;;;0.00;0.00;;;;;18.74;54.92;99598.44;4996381;28;45487;-77
2023/12/09 11:10:08;;;;;;;;;0.00;0.00;;;;;18.77;54.89;99571.88;5014804;28;46047;-76
2023/12/09 11:12:35;;;;;;;;;0.00;0.00;;;;;19.06;54.54;99606.13;5014657;28;45407;-77
2023/12/09 11:15:12;;;;;;;;;0.00;0.00;;;;;18.96;55.11;99579.06;5014827;28;45347;-77
2023/12/09 11:17:40;;;;;;;;;0.00;0.00;;;;;18.99;54.93;99572.44;5014535;28;45284;-77
2023/12/09 11:20:10;;;;;;;;;0.00;0.00;;;;;19.05;55.28;99552.84;4996133;28;47270;-78
2023/12/09 11:22:40;;;;;;;;;0.00;0.00;;;;;18.53;56.24;99571.53;5017450;28;45581;-79
2023/12/09 11:25:32;;;;;;;;;0.00;0.00;;;;;18.88;55.44;99555.34;4978118;28;45396;-78
2023/12/09 11:27:58;;;;;;;;;0.00;0.00;;;;;18.91;55.08;99556.91;5007332;28;45720;-79
2023/12/09 11:30:33;;;;;;;;;2.00;0.00;;;;;19.02;55.72;99558.56;5015136;28;46162;-76
2023/12/09 11:32:59;;;;;;;;;0.00;0.00;;;;;19.14;55.33;99531.00;5014018;28;45356;-76
2023/12/09 11:35:26;;;;;;;;;0.00;0.00;;;;;19.12;55.00;99568.38;4998556;28;45606;-75
2023/12/09 11:37:53;;;;;;;;;0.00;0.00;;;;;19.16;54.97;99533.59;5017752;28;45483;-75
2023/12/09 11:40:19;;;;;;;;;0.00;0.00;;;;;19.50;54.34;99528.31;5003996;28;46318;-75
2023/12/09 11:42:46;;;;;;;;;0.00;0.00;;;;;19.21;54.95;99540.28;5018254;28;45570;-77
2023/12/09 11:45:11;;;;;;;;;0.00;0.00;;;;;19.50;54.19;99509.28;5017589;28;45463;-77
2023/12/09 11:47:38;;;;;;;;;0.00;0.00;;;;;19.54;54.36;99527.00;4998357;28;46652;-77
2023/12/09 11:50:06;;;;;;;;;0.00;0.00;;;;;19.40;54.31;99525.66;5017124;28;46590;-76
2023/12/09 11:52:31;;;;;;;;;0.00;0.00;;;;;19.79;53.80;99523.47;5017292;28;45504;-80
2023/12/09 11:55:10;;;;;;;;;1.00;0.00;;;;;19.65;54.17;99534.91;5023587;28;48811;-76
2023/12/09 11:57:35;;;;;;;;;0.00;0.00;;;;;19.32;54.62;99535.59;4999784;28;45643;-79
2023/12/09 12:00:01;;;;;;;;;0.00;0.00;;;;;19.29;55.44;99528.63;5028602;28;45515;-76
2023/12/09 12:02:26;;;;;;;;;0.00;0.00;;;;;19.39;55.43;99515.81;5019377;28;45402;-76
2023/12/09 12:04:51;;;;;;;;;1.75;0.00;;;;;19.90;54.36;99512.34;4998974;28;59525;-76
2023/12/09 12:07:17;;;;;;;;;0.00;0.00;;;;;19.75;54.57;99521.22;5017602;28;45638;-76
2023/12/09 12:09:42;;;;;;;;;0.00;0.00;;;;;19.85;54.76;99509.22;5017522;28;45418;-77
2023/12/09 12:12:08;;;;;;;;;0.00;0.00;;;;;19.58;55.52;99493.06;5017503;28;45424;-77
2023/12/09 12:14:35;;;;;;;;;0.00;0.00;;;;;20.09;54.38;99496.78;5017129;28;45471;-75
2023/12/09 12:17:00;;;;;;;;;1.00;0.00;;;;;19.57;55.30;99496.78;5030198;28;45484;-77
2023/12/09 12:19:26;;;;;;;;;0.00;0.00;;;;;20.08;54.41;99495.94;5001093;28;46297;-78
2023/12/09 12:21:55;;;;;;;;;0.00;0.00;;;;;20.38;53.87;99479.13;5017092;28;45373;-75
2023/12/09 12:24:20;;;;;;;;;0.00;0.00;;;;;20.32;53.93;99466.16;5017225;28;45349;-76
2023/12/09 12:26:46;;;;;;;;;0.25;0.25;;;;;20.30;54.01;99451.00;5016718;28;45499;-77
2023/12/09 12:29:18;;;;;;;;;0.00;0.00;;;;;20.14;54.31;99457.22;5017021;28;45734;-75
2023/12/09 12:31:48;;;;;;;;;0.00;0.00;;;;;20.15;54.55;99461.66;5017080;28;45379;-77
2023/12/09 12:34:15;;;;;;;;;0.75;0.00;;;;;20.52;53.62;99449.56;5016692;28;45392;-77
2023/12/09 12:36:40;;;;;;;;;0.00;0.00;;;;;20.47;53.61;99400.22;5016590;28;45275;-77
2023/12/09 12:39:06;;;;;;;;;0.75;0.00;;;;;20.33;53.85;99420.72;5016800;28;45467;-76
2023/12/09 12:41:32;;;;;;;;;0.00;0.00;;;;;20.65;53.44;99415.41;5017127;28;45365;-77
2023/12/09 12:43:57;;;;;;;;;0.00;0.00;;;;;20.17;54.85;99423.34;5016671;28;45470;-77
2023/12/09 12:46:23;;;;;;;;;0.00;0.00;;;;;20.04;54.69;99423.84;5016038;28;45483;-77
2023/12/09 12:48:48;;;;;;;;;0.00;0.00;;;;;20.16;54.86;99411.63;5014752;28;66477;-76
2023/12/09 12:51:14;;;;;;;;;0.00;0.00;;;;;20.47;54.45;99408.38;5014450;28;45348;-74
2023/12/09 12:53:39;;;;;;;;;0.00;0.00;;;;;19.52;56.34;99431.16;5003772;28;45728;-74
2023/12/09 12:56:05;;;;;;;;;0.00;0.00;;;;;20.37;54.98;99381.28;5013970;28;45411;-74
2023/12/09 12:58:30;;;;;;;;;0.00;0.00;;;;;20.31;55.39;99379.22;5019875;28;46130;-75
2023/12/09 13:00:56;;;;;;;;;0.00;0.00;;;;;20.34;55.27;99373.44;5021173;28;45503;-77
2023/12/09 13:03:23;;;;;;;;;0.00;0.00;;;;;20.51;55.51;99387.94;5004585;28;45529;-76
2023/12/09 13:05:49;;;;;;;;;0.00;0.00;;;;;19.74;56.53;99378.94;5026171;28;45332;-75
2023/12/09 13:08:15;;;;;;;;;0.00;0.00;;;;;20.41;55.68;99384.56;5025324;28;45325;-78
2023/12/09 13:10:40;;;;;;;;;0.00;0.00;;;;;20.85;54.21;99364.16;5019600;28;45463;-72
2023/12/09 13:13:06;;;;;;;;;0.00;0.00;;;;;20.75;54.59;99358.91;5016353;28;45769;-73
2023/12/09 13:15:31;;;;;;;;;0.00;0.00;;;;;20.90;54.43;99375.44;5015865;28;60549;-72
2023/12/09 13:17:56;;;;;;;;;0.00;0.00;;;;;20.86;54.34;99351.41;5015973;28;57015;-73
2023/12/09 13:20:21;;;;;;;;;1.00;0.00;;;;;20.95;54.36;99370.31;5019495;28;65235;-74
2023/12/09 13:22:47;;;;;;;;;0.00;0.00;;;;;21.05;53.87;99345.63;5016771;28;45446;-74
2023/12/09 13:25:13;;;;;;;;;0.25;0.25;;;;;20.79;54.45;99343.06;5015787;28;57409;-75
2023/12/09 13:27:39;;;;;;;;;0.00;0.00;;;;;21.15;54.01;99346.31;5016036;28;46985;-73
2023/12/09 13:30:06;;;;;;;;;0.25;0.00;;;;;21.21;53.74;99355.69;5016133;28;45562;-73
2023/12/09 13:32:32;;;;;;;;;0.00;0.00;;;;;21.20;54.03;99356.72;5016005;28;45616;-74
2023/12/09 13:34:57;;;;;;;;;1.00;1.00;;;;;21.29;53.79;99356.53;5015916;28;45401;-74
2023/12/09 13:37:23;;;;;;;;;0.00;0.00;;;;;21.37;53.75;99326.53;5015648;28;45314;-73
2023/12/09 13:39:48;;;;;;;;;0.00;0.00;;;;;21.20;54.45;99330.31;4997671;28;46697;-74
2023/12/09 13:42:14;;;;;;;;;0.00;0.00;;;;;21.10;54.54;99337.78;5024156;28;45400;-75
2023/12/09 13:44:39;;;;;;;;;1.50;0.00;;;;;21.15;54.45;99333.53;5025095;28;45584;-74
2023/12/09 13:47:05;;;;;;;;;0.00;0.00;;;;;21.36;53.90;99313.91;5023420;28;45408;-74
2023/12/09 13:49:30;;;;;;;;;0.00;0.00;;;;;21.35;54.10;99328.56;5021862;28;45411;-74
2023/12/09 13:51:56;;;;;;;;;0.00;0.00;;;;;21.35;54.16;99331.28;5020444;28;45408;-75
2023/12/09 13:54:22;;;;;;;;;0.25;0.25;;;;;21.46;54.31;99302.81;5007555;28;45682;-74
2023/12/09 13:56:48;;;;;;;;;0.75;0.75;;;;;21.39;53.91;99305.41;5009899;28;46214;-74
2023/12/09 13:59:13;;;;;;;;;0.00;0.00;;;;;21.50;54.57;99312.38;5012967;28;45511;-76
2023/12/09 14:01:39;;;;;;;;;0.00;0.00;;;;;21.34;54.45;99290.59;5018418;28;45622;-76
2023/12/09 14:04:05;;;;;;;;;0.00;0.00;;;;;21.58;53.82;99306.03;5012724;28;57113;-73
2023/12/09 14:06:31;;;;;;;;;0.00;0.00;;;;;21.72;53.51;99291.66;5007982;28;45812;-74
2023/12/09 14:08:57;;;;;;;;;0.00;0.00;;;;;21.58;53.82;99276.88;5025433;28;45340;-73
2023/12/09 14:11:25;;;;;;;;;0.00;0.00;;;;;21.31;54.85;99277.31;5024728;28;45450;-73
2023/12/09 14:13:51;;;;;;;;;0.50;0.00;;;;;21.16;54.76;99263.53;5004340;28;45397;-74
2023/12/09 14:16:16;;;;;;;;;0.00;0.00;;;;;21.71;54.02;99274.44;5023316;28;45539;-75
2023/12/09 14:18:41;;;;;;;;;0.00;0.00;;;;;21.49;54.25;99273.34;5024920;28;45213;-77
2023/12/09 14:21:07;;;;;;;;;0.00;0.00;;;;;21.50;54.47;99294.13;5024027;28;45408;-75
2023/12/09 14:23:33;;;;;;;;;0.00;0.00;;;;;21.59;54.43;99292.22;5029518;28;45426;-73
2023/12/09 14:26:00;;;;;;;;;0.00;0.00;;;;;21.77;53.94;99286.53;5015041;28;46460;-73
2023/12/09 14:28:25;;;;;;;;;0.00;0.00;;;;;21.78;53.75;99280.03;5020153;28;45545;-72
2023/12/09 14:30:51;;;;;;;;;0.00;0.00;;;;;21.72;54.27;99297.09;5005892;28;47094;-72
2023/12/09 14:33:16;;;;;;;;;0.00;0.00;;;;;21.21;54.47;99290.28;5001886;28;45491;-73
2023/12/09 14:35:42;;;;;;;;;0.00;0.00;;;;;21.71;54.37;99289.94;5002144;28;48101;-72
2023/12/09 14:38:08;;;;;;;;;0.00;0.00;;;;;21.61;54.57;99322.03;5016490;28;45363;-73
2023/12/09 14:40:34;;;;;;;;;0.00;0.00;;;;;21.53;55.43;99322.91;5011394;28;45566;-72
2023/12/09 14:43:06;;;;;;;;;0.00;0.00;;;;;21.61;55.31;99360.22;5015611;28;45498;-73
2023/12/09 14:45:35;;;;;;;;;0.00;0.00;;;;;21.34;56.08;99373.25;4999649;28;47868;-73
2023/12/09 14:48:00;;;;;;;;;0.00;0.00;;;;;21.28;56.53;99383.97;5023730;28;45333;-72
2023/12/09 14:50:27;;;;;;;;;0.00;0.00;;;;;21.60;56.01;99404.91;5021135;28;45278;-74
2023/12/09 14:52:52;;;;;;;;;0.75;0.00;;;;;21.28;57.03;99383.97;5009841;28;45387;-73
2023/12/09 14:55:18;;;;;;;;;0.00;0.00;;;;;21.51;56.23;99388.56;5016450;28;46207;-74
2023/12/09 14:57:43;;;;;;;;;0.00;0.00;;;;;21.74;55.67;99382.34;5022392;28;45438;-73
2023/12/09 15:00:10;;;;;;;;;0.00;0.00;;;;;21.97;54.48;99371.53;5016505;28;45428;-75
2023/12/09 15:02:36;;;;;;;;;0.00;0.00;;;;;21.92;54.32;99372.06;5024660;28;45542;-73
2023/12/09 15:05:01;;;;;;;;;0.00;0.00;;;;;21.90;53.91;99346.81;5022162;28;46094;-74
2023/12/09 15:07:27;;;;;;;;;0.00;0.00;;;;;22.00;52.34;99352.13;5016212;28;45395;-74
2023/12/09 15:09:52;;;;;;;;;0.00;0.00;;;;;21.81;52.16;99347.88;5013793;28;45237;-76
2023/12/09 15:12:19;;;;;;;;;2.00;0.00;;;;;22.04;51.41;99357.03;5023869;28;45261;-76
2023/12/09 15:14:44;;;;;;;;;0.00;0.00;;;;;22.09;51.17;99301.91;5014603;28;46661;-76
2023/12/09 15:17:11;;;;;;;;;0.00;0.00;;;;;22.12;50.18;99258.72;5014376;28;45569;-77
2023/12/09 15:19:36;;;;;;;;;0.00;0.00;;;;;21.96;50.13;99286.06;5014608;28;45293;-75
2023/12/09 15:22:02;;;;;;;;;0.00;0.00;;;;;22.00;50.60;99330.28;5014531;28;45676;-73
2023/12/09 15:24:28;;;;;;;;;0.00;0.00;;;;;22.32;50.12;99313.72;5019982;28;46285;-74
2023/12/09 15:26:54;;;;;;;;;0.00;0.00;;;;;22.16;49.57;99300.16;5011809;28;45479;-75
2023/12/09 15:29:19;;;;;;;;;0.00;0.00;;;;;22.19;50.12;99341.63;5014575;28;45535;-75
2023/12/09 15:31:47;;;;;;;;;0.00;0.00;;;;;22.08;49.38;99352.94;5013749;28;51011;-74
2023/12/09 15:34:12;;;;;;;;;0.00;0.00;;;;;22.35;49.26;99345.28;5014279;28;46286;-74
2023/12/09 15:36:37;;;;;;;;;0.00;0.00;;;;;22.29;49.40;99363.22;4996156;28;45439;-73
2023/12/09 15:39:03;;;;;;;;;0.00;0.00;;;;;21.98;49.80;99348.69;5014470;28;45536;-74
2023/12/09 15:41:28;;;;;;;;;0.00;0.00;;;;;22.17;49.88;99318.25;4996423;28;45808;-74
2023/12/09 15:43:53;;;;;;;;;1.00;0.00;;;;;22.41;49.67;99347.28;5013791;28;52682;-74
2023/12/09 15:46:19;;;;;;;;;0.00;0.00;;;;;22.31;49.88;99368.50;4996326;28;45319;-75
2023/12/09 15:48:45;;;;;;;;;1.75;0.00;;;;;22.33;50.47;99382.84;5014560;28;45324;-74
2023/12/09 15:51:11;;;;;;;;;1.00;1.00;;;;;22.16;50.78;99384.78;5014255;28;45526;-77
2023/12/09 15:53:39;;;;;;;;;1.00;1.00;;;;;22.04;50.40;99388.91;4999108;28;47593;-77
2023/12/09 15:56:07;;;;;;;;;0.50;0.50;;;;;22.13;49.94;99380.53;5014349;28;45325;-75
2023/12/09 15:58:33;;;;;;;;;0.00;0.00;;;;;21.93;50.66;99386.56;5018810;28;45548;-74
2023/12/09 16:00:59;;;;;;;;;0.00;0.00;;;;;22.01;50.18;99405.69;5024607;28;45396;-76
2023/12/09 16:03:24;;;;;;;;;1.00;0.00;;;;;21.78;50.00;99419.16;4996291;28;46025;-75
2023/12/09 16:05:52;;;;;;;;;0.00;0.00;;;;;22.00;49.39;99420.34;5013694;28;45383;-76
2023/12/09 16:08:21;;;;;;;;;2.00;0.00;;;;;22.16;49.14;99445.69;5016248;28;45535;-77
2023/12/09 16:10:48;;;;;;;;;0.75;0.75;;;;;22.28;48.53;99465.28;5022009;28;45310;-76
2023/12/09 16:13:13;;;;;;;;;3.00;1.00;;;;;22.00;48.22;99450.38;5022380;28;46481;-76
2023/12/09 16:15:39;;;;;;;;;5.75;2.50;;;;;22.29;47.96;99477.06;5009364;28;45609;-78
2023/12/09 16:18:06;;;;;;;;;2.75;1.00;;;;;22.36;48.00;99483.53;5011950;28;45841;-75
2023/12/09 16:20:32;;;;;;;;;0.00;0.00;;;;;22.14;48.09;99475.06;4995165;28;45404;-78
2023/12/09 16:22:57;;;;;;;;;1.25;1.25;;;;;22.11;48.71;99496.41;5012628;28;46111;-77
2023/12/09 16:25:23;;;;;;;;;1.25;1.00;;;;;22.25;47.70;99515.63;5011179;28;45379;-75